Time;durP1;ratioP1;P1;durP2;ratioP2;P2;SDS_P1;SDS_P2;PMS_P1;PMS_P2;Temp;Humidity;BMP_temperature;BMP_pressure;BME280_temperature;BME280_humidity;BME280_pressure;Samples;Min_cycle;Max_cycle;Signal;HPM_P1;HPM_P2
2022/10/10 00:02:13;;;;;;;5.33;4.40;;;12.40;99.90;;;;;;4994732;28;20211;-69
2022/10/10 00:04:39;;;;;;;4.83;4.37;;;12.40;99.90;;;;;;5012994;28;20242;-69
2022/10/10 00:07:05;;;;;;;5.13;4.67;;;12.40;99.90;;;;;;5023247;28;20229;-70
2022/10/10 00:09:31;;;;;;;5.70;4.43;;;12.40;99.90;;;;;;5032679;28;20905;-72
2022/10/10 00:11:57;;;;;;;5.00;4.70;;;12.50;99.90;;;;;;5031447;28;20272;-73
2022/10/10 00:14:23;;;;;;;4.77;4.47;;;12.40;99.90;;;;;;5031863;28;20531;-72
2022/10/10 00:16:48;;;;;;;4.60;4.30;;;12.50;99.90;;;;;;5032284;28;20265;-71
2022/10/10 00:19:14;;;;;;;4.30;4.00;;;12.50;99.90;;;;;;5032003;28;20634;-71
2022/10/10 00:21:40;;;;;;;4.77;4.47;;;12.60;99.90;;;;;;5031790;28;20231;-71
2022/10/10 00:24:06;;;;;;;5.80;4.63;;;12.60;99.90;;;;;;5031928;28;20177;-72
2022/10/10 00:26:32;;;;;;;5.20;4.90;;;12.60;99.90;;;;;;5032574;28;20764;-72
2022/10/10 00:28:57;;;;;;;5.60;4.30;;;12.70;99.90;;;;;;5031525;28;20176;-73
2022/10/10 00:31:23;;;;;;;4.30;4.10;;;12.70;99.90;;;;;;5032162;28;20186;-73
2022/10/10 00:33:49;;;;;;;4.63;4.23;;;12.70;99.90;;;;;;5031721;28;20178;-72
2022/10/10 00:36:15;;;;;;;4.67;4.27;;;12.80;99.90;;;;;;5029767;28;20238;-71
2022/10/10 00:38:41;;;;;;;4.40;4.00;;;12.80;99.90;;;;;;5032377;28;20631;-71
2022/10/10 00:41:07;;;;;;;4.27;3.93;;;12.80;99.90;;;;;;5014126;28;20461;-71
2022/10/10 00:43:33;;;;;;;4.30;4.00;;;12.70;99.90;;;;;;5030788;28;20184;-71
2022/10/10 00:45:59;;;;;;;3.83;3.60;;;12.70;99.90;;;;;;5031752;28;20465;-74
2022/10/10 00:48:38;;;;;;;4.10;3.80;;;12.70;99.90;;;;;;5032012;28;20430;-71
2022/10/10 00:51:10;;;;;;;4.10;3.60;;;12.70;99.90;;;;;;5031772;28;20170;-71
2022/10/10 00:53:51;;;;;;;4.00;3.70;;;12.80;99.90;;;;;;5032262;28;20421;-71
2022/10/10 00:56:24;;;;;;;4.50;4.10;;;12.80;99.90;;;;;;5030476;28;20461;-71
2022/10/10 00:58:53;;;;;;;4.30;3.90;;;12.80;99.90;;;;;;5032393;28;20396;-71
2022/10/10 01:01:18;;;;;;;4.00;3.77;;;12.80;99.90;;;;;;5031507;28;20456;-71
2022/10/10 01:03:44;;;;;;;3.90;3.60;;;12.90;99.90;;;;;;5031475;28;20423;-71
2022/10/10 01:06:10;;;;;;;4.53;3.80;;;12.90;99.90;;;;;;5013768;28;20229;-71
2022/10/10 01:08:36;;;;;;;4.00;3.70;;;12.90;99.90;;;;;;5032316;28;20198;-71
2022/10/10 01:11:23;;;;;;;4.60;4.20;;;12.90;99.90;;;;;;5031818;28;20900;-71
2022/10/10 01:14:01;;;;;;;4.20;3.90;;;12.90;99.90;;;;;;5034454;28;20438;-71
2022/10/10 01:16:41;;;;;;;4.23;3.90;;;13.00;99.90;;;;;;5036036;28;20422;-71
2022/10/10 01:19:39;;;;;;;4.83;3.50;;;13.00;99.90;;;;;;5035233;28;20499;-71
2022/10/10 01:22:42;;;;;;;4.40;4.00;;;13.10;99.90;;;;;;5014017;28;20589;-71
2022/10/10 01:25:14;;;;;;;4.40;4.00;;;13.20;99.90;;;;;;5014995;28;20405;-72
2022/10/10 01:28:05;;;;;;;4.83;3.90;;;13.20;99.90;;;;;;5024270;28;20456;-71
2022/10/10 01:30:34;;;;;;;4.97;4.00;;;13.20;99.90;;;;;;5024614;28;20493;-71
2022/10/10 01:33:02;;;;;;;4.30;3.97;;;13.20;99.90;;;;;;5033366;28;20435;-76
2022/10/10 01:35:40;;;;;;;4.10;3.90;;;13.20;99.90;;;;;;5034958;28;20767;-71
2022/10/10 01:38:38;;;;;;;4.30;4.10;;;13.20;99.90;;;;;;5033633;28;20436;-71
2022/10/10 01:41:16;;;;;;;4.50;4.20;;;13.20;99.90;;;;;;5022137;28;20494;-72
2022/10/10 01:43:41;;;;;;;4.90;4.50;;;13.20;99.90;;;;;;5033843;28;20995;-71
2022/10/10 01:46:17;;;;;;;5.70;5.30;;;13.10;99.90;;;;;;5015340;28;20521;-71
2022/10/10 01:48:47;;;;;;;5.30;4.90;;;13.20;99.90;;;;;;5034034;28;20196;-71
2022/10/10 01:51:21;;;;;;;5.43;5.03;;;13.20;99.90;;;;;;5016420;28;20471;-71
2022/10/10 01:53:55;;;;;;;5.43;4.93;;;13.30;99.90;;;;;;5033763;28;20996;-71
2022/10/10 01:56:34;;;;;;;5.07;4.67;;;13.30;99.90;;;;;;5034067;28;20394;-71
2022/10/10 01:59:14;;;;;;;4.77;4.37;;;13.30;99.90;;;;;;5015800;28;20463;-74
2022/10/10 02:02:00;;;;;;;5.20;4.80;;;13.30;99.90;;;;;;5016015;28;20452;-71
2022/10/10 02:04:37;;;;;;;5.23;4.80;;;13.30;99.90;;;;;;5033415;28;20439;-71
2022/10/10 02:07:10;;;;;;;6.00;5.33;;;13.30;99.90;;;;;;5022179;28;20976;-76
2022/10/10 02:09:40;;;;;;;5.67;5.17;;;13.40;99.90;;;;;;5014700;28;20493;-71
2022/10/10 02:12:09;;;;;;;5.63;5.13;;;13.40;99.90;;;;;;5013055;28;20449;-72
2022/10/10 02:14:43;;;;;;;5.03;4.63;;;13.30;99.90;;;;;;5014567;28;20400;-71
2022/10/10 02:17:12;;;;;;;5.30;4.90;;;13.30;99.90;;;;;;5013987;28;20459;-72
2022/10/10 02:19:43;;;;;;;5.07;4.60;;;13.30;99.90;;;;;;4996891;28;20977;-71
2022/10/10 02:22:09;;;;;;;5.13;4.63;;;13.30;99.90;;;;;;5013688;28;20544;-70
2022/10/10 02:24:35;;;;;;;7.60;5.37;;;13.20;99.90;;;;;;4995679;28;20436;-70
2022/10/10 02:27:08;;;;;;;6.80;5.13;;;13.20;99.90;;;;;;4996708;28;21000;-74
2022/10/10 02:29:37;;;;;;;5.83;5.33;;;13.10;99.90;;;;;;5014492;28;20452;-70
2022/10/10 02:32:08;;;;;;;5.80;5.40;;;13.00;99.90;;;;;;5014099;28;20415;-75
2022/10/10 02:34:41;;;;;;;5.17;4.87;;;13.00;99.90;;;;;;5014060;28;20406;-70
2022/10/10 02:37:11;;;;;;;5.47;5.03;;;13.00;99.90;;;;;;5012375;28;20447;-71
2022/10/10 02:39:42;;;;;;;5.33;4.93;;;12.90;99.90;;;;;;5013892;28;20972;-70
2022/10/10 02:42:11;;;;;;;4.97;4.50;;;12.90;99.90;;;;;;5012542;28;20784;-70
2022/10/10 02:44:38;;;;;;;5.93;5.40;;;12.90;99.90;;;;;;4996703;28;20780;-70
2022/10/10 02:47:04;;;;;;;7.03;4.87;;;12.90;99.90;;;;;;5012488;28;20428;-75
2022/10/10 02:49:32;;;;;;;4.77;4.27;;;12.90;99.90;;;;;;5013583;28;20418;-70
2022/10/10 02:51:58;;;;;;;4.87;4.47;;;12.70;99.90;;;;;;4999555;28;20450;-70
2022/10/10 02:54:24;;;;;;;4.80;4.40;;;12.70;99.90;;;;;;5012778;28;20411;-70
2022/10/10 02:56:51;;;;;;;7.57;4.87;;;12.80;99.90;;;;;;5013270;28;20965;-70
2022/10/10 02:59:17;;;;;;;4.70;4.30;;;12.80;99.90;;;;;;5012467;28;20435;-71
2022/10/10 03:01:43;;;;;;;4.90;4.33;;;12.80;99.90;;;;;;5012786;28;20978;-72
2022/10/10 03:04:09;;;;;;;4.97;4.57;;;12.90;99.90;;;;;;5012920;28;20424;-72
2022/10/10 03:06:35;;;;;;;4.17;3.97;;;12.90;99.90;;;;;;5000524;28;20537;-72
2022/10/10 03:09:02;;;;;;;4.60;4.20;;;12.90;99.90;;;;;;5003523;28;20495;-72
2022/10/10 03:11:28;;;;;;;4.97;4.60;;;12.90;99.90;;;;;;5001456;28;20903;-73
2022/10/10 03:13:55;;;;;;;5.43;5.00;;;12.90;99.90;;;;;;5006586;28;20534;-72
2022/10/10 03:16:20;;;;;;;5.80;4.63;;;12.90;99.90;;;;;;5012267;28;20525;-72
2022/10/10 03:18:46;;;;;;;6.33;5.00;;;12.90;99.90;;;;;;5013526;28;20189;-72
2022/10/10 03:21:12;;;;;;;5.37;4.87;;;12.90;99.90;;;;;;5012545;28;20212;-72
2022/10/10 03:23:38;;;;;;;5.90;5.40;;;12.90;99.90;;;;;;5013423;28;20184;-72
2022/10/10 03:26:04;;;;;;;5.30;4.80;;;12.90;99.90;;;;;;5012454;28;20225;-72
2022/10/10 03:28:30;;;;;;;5.87;5.27;;;12.90;99.90;;;;;;5012242;28;20274;-72
2022/10/10 03:30:55;;;;;;;6.33;5.83;;;12.80;99.90;;;;;;5013329;28;20947;-72
2022/10/10 03:33:22;;;;;;;5.20;4.80;;;12.80;99.90;;;;;;5012111;28;20521;-72
2022/10/10 03:35:48;;;;;;;5.60;5.10;;;12.80;99.90;;;;;;5012435;28;20173;-71
2022/10/10 03:38:14;;;;;;;5.70;5.20;;;12.70;99.90;;;;;;5011987;28;20403;-72
2022/10/10 03:40:41;;;;;;;6.07;5.47;;;12.80;99.90;;;;;;5012133;28;20426;-72
2022/10/10 03:43:09;;;;;;;5.30;4.80;;;12.70;99.90;;;;;;5011601;28;20991;-73
2022/10/10 03:45:35;;;;;;;5.23;4.83;;;12.70;99.90;;;;;;5012925;28;20524;-72
2022/10/10 03:48:01;;;;;;;7.53;4.93;;;12.60;99.90;;;;;;4945924;28;20431;-72
2022/10/10 03:50:27;;;;;;;4.83;4.53;;;12.60;99.90;;;;;;5012065;28;20399;-72
2022/10/10 03:52:52;;;;;;;7.23;5.80;;;12.60;99.90;;;;;;5012010;28;20431;-72
2022/10/10 03:55:18;;;;;;;6.20;5.70;;;12.60;99.90;;;;;;4994412;28;20184;-72
2022/10/10 03:57:44;;;;;;;5.73;5.17;;;12.60;99.90;;;;;;5013088;28;20210;-71
2022/10/10 04:00:10;;;;;;;6.20;5.60;;;12.60;99.90;;;;;;5012278;28;20530;-74
2022/10/10 04:02:36;;;;;;;6.10;5.60;;;12.60;99.90;;;;;;5012631;28;20234;-72
2022/10/10 04:05:02;;;;;;;5.87;5.27;;;12.60;99.90;;;;;;5012705;28;20965;-73
2022/10/10 04:07:28;;;;;;;8.13;5.43;;;12.60;99.90;;;;;;5011992;28;20222;-71
2022/10/10 04:09:54;;;;;;;5.27;4.87;;;12.50;99.90;;;;;;5012323;28;20472;-73
2022/10/10 04:12:19;;;;;;;7.90;4.90;;;12.50;99.90;;;;;;5011312;28;20882;-73
2022/10/10 04:14:45;;;;;;;5.70;5.10;;;12.40;99.90;;;;;;5011797;28;20176;-73
2022/10/10 04:17:11;;;;;;;5.83;4.07;;;12.40;99.90;;;;;;5012337;28;20214;-75
2022/10/10 04:19:36;;;;;;;5.60;4.47;;;12.40;99.90;;;;;;5011760;28;20721;-74
2022/10/10 04:22:02;;;;;;;5.80;5.40;;;12.30;99.90;;;;;;5012343;28;20207;-73
2022/10/10 04:24:28;;;;;;;5.17;4.70;;;12.30;99.90;;;;;;5011670;28;21008;-73
2022/10/10 04:26:54;;;;;;;5.20;4.60;;;12.30;99.90;;;;;;5011456;28;20190;-73
2022/10/10 04:29:20;;;;;;;5.00;4.70;;;12.30;99.90;;;;;;5010474;28;20609;-73
2022/10/10 04:31:46;;;;;;;5.07;4.67;;;12.30;99.90;;;;;;5012066;28;20516;-73
2022/10/10 04:34:11;;;;;;;6.33;5.73;;;12.30;99.90;;;;;;5011831;28;20588;-75
2022/10/10 04:36:37;;;;;;;6.13;5.50;;;12.30;99.90;;;;;;4992769;28;20194;-74
2022/10/10 04:39:03;;;;;;;6.17;4.80;;;12.20;99.90;;;;;;5012260;28;20225;-74
2022/10/10 04:41:29;;;;;;;5.33;4.83;;;12.20;99.90;;;;;;5010614;28;20215;-73
2022/10/10 04:43:54;;;;;;;5.03;4.50;;;12.20;99.90;;;;;;5012020;28;20420;-73
2022/10/10 04:46:20;;;;;;;4.60;4.20;;;12.20;99.90;;;;;;5011460;28;20213;-73
2022/10/10 04:48:46;;;;;;;6.00;5.40;;;12.30;99.90;;;;;;5015660;28;20699;-73
2022/10/10 04:51:11;;;;;;;5.70;5.30;;;12.20;99.90;;;;;;5015679;28;20194;-75
2022/10/10 04:53:37;;;;;;;6.70;5.30;;;12.30;99.90;;;;;;5015634;28;20547;-74
2022/10/10 04:56:03;;;;;;;5.50;5.00;;;12.30;99.90;;;;;;5014558;28;20199;-73
2022/10/10 04:58:29;;;;;;;5.47;4.97;;;12.30;99.90;;;;;;5015221;28;20178;-73
2022/10/10 05:00:55;;;;;;;4.80;4.40;;;12.30;99.90;;;;;;5014132;28;20961;-73
2022/10/10 05:03:22;;;;;;;4.97;4.57;;;12.30;99.90;;;;;;5014869;28;20433;-73
2022/10/10 05:05:48;;;;;;;7.43;5.80;;;12.30;99.90;;;;;;5016033;28;20191;-73
2022/10/10 05:08:15;;;;;;;5.20;4.60;;;12.30;99.90;;;;;;5035168;28;20393;-75
2022/10/10 05:10:41;;;;;;;5.20;4.70;;;12.30;99.90;;;;;;5034664;28;20522;-73
2022/10/10 05:13:13;;;;;;;5.30;4.80;;;12.30;99.90;;;;;;5033254;28;20464;-73
2022/10/10 05:15:40;;;;;;;5.50;5.00;;;12.30;99.90;;;;;;5033197;28;20174;-71
2022/10/10 05:18:06;;;;;;;4.47;4.00;;;12.30;99.90;;;;;;5035604;28;20812;-70
2022/10/10 05:20:33;;;;;;;5.60;5.10;;;12.20;99.90;;;;;;5034490;28;20421;-70
2022/10/10 05:22:59;;;;;;;4.63;4.13;;;12.30;99.90;;;;;;5033735;28;20510;-70
2022/10/10 05:25:25;;;;;;;4.93;4.53;;;12.20;99.90;;;;;;5034585;28;20408;-70
2022/10/10 05:27:51;;;;;;;7.70;5.67;;;12.20;99.90;;;;;;5035095;28;20870;-72
2022/10/10 05:30:17;;;;;;;5.57;5.18;;;12.20;99.90;;;;;;5033495;28;20547;-70
2022/10/10 05:32:42;;;;;;;5.43;4.93;;;12.20;99.90;;;;;;5035073;28;20209;-70
2022/10/10 05:35:08;;;;;;;4.60;4.10;;;12.20;99.90;;;;;;5034591;28;20193;-70
2022/10/10 05:37:35;;;;;;;6.20;4.60;;;12.30;99.90;;;;;;5034316;28;20166;-70
2022/10/10 05:40:01;;;;;;;8.70;4.87;;;12.10;99.90;;;;;;5035045;28;20796;-70
2022/10/10 05:42:27;;;;;;;5.27;4.87;;;12.20;99.90;;;;;;5033291;28;20472;-70
2022/10/10 05:44:52;;;;;;;6.13;5.50;;;12.10;99.90;;;;;;5034861;28;20500;-70
2022/10/10 05:47:18;;;;;;;5.73;5.10;;;12.10;99.90;;;;;;5034402;28;20261;-71
2022/10/10 05:49:44;;;;;;;5.53;5.03;;;12.10;99.90;;;;;;5034610;28;20174;-70
2022/10/10 05:52:09;;;;;;;5.37;4.93;;;12.00;99.90;;;;;;5034627;28;20212;-71
2022/10/10 05:54:35;;;;;;;6.03;5.37;;;11.90;99.90;;;;;;5028660;28;20180;-70
2022/10/10 05:57:01;;;;;;;5.67;5.17;;;11.90;99.90;;;;;;5014745;28;20249;-69
2022/10/10 05:59:30;;;;;;;7.10;5.70;;;12.00;99.90;;;;;;5013195;28;20204;-69
2022/10/10 06:01:56;;;;;;;6.83;5.57;;;11.90;99.90;;;;;;5025582;28;20217;-69
2022/10/10 06:04:22;;;;;;;6.37;5.87;;;11.80;99.90;;;;;;5033724;28;20527;-70
2022/10/10 06:06:48;;;;;;;6.97;6.00;;;11.80;99.90;;;;;;5024477;28;20489;-69
2022/10/10 06:09:14;;;;;;;7.40;5.87;;;11.80;99.90;;;;;;5014285;28;20416;-71
2022/10/10 06:11:40;;;;;;;12.30;6.17;;;11.80;99.90;;;;;;5013045;28;20432;-69
2022/10/10 06:14:06;;;;;;;8.20;6.47;;;11.80;99.90;;;;;;5014278;28;20625;-69
2022/10/10 06:16:32;;;;;;;6.27;5.70;;;11.70;99.90;;;;;;5014597;28;20527;-69
2022/10/10 06:18:57;;;;;;;7.30;6.60;;;11.70;99.90;;;;;;5014331;28;20422;-69
2022/10/10 06:21:24;;;;;;;7.20;6.30;;;11.80;99.90;;;;;;5013967;28;20252;-69
2022/10/10 06:23:51;;;;;;;9.30;7.50;;;11.90;99.90;;;;;;5014880;28;20531;-69
2022/10/10 06:26:17;;;;;;;8.57;6.67;;;11.90;99.90;;;;;;5014147;28;20426;-70
2022/10/10 06:28:42;;;;;;;7.97;7.27;;;11.80;99.90;;;;;;4978700;28;20410;-69
2022/10/10 06:31:11;;;;;;;8.73;6.53;;;11.80;99.90;;;;;;4995164;28;20448;-69
2022/10/10 06:33:38;;;;;;;8.50;7.20;;;11.80;99.90;;;;;;4994524;28;20175;-69
2022/10/10 06:36:07;;;;;;;8.90;6.20;;;11.80;99.90;;;;;;4995035;28;20407;-69
2022/10/10 06:38:37;;;;;;;7.03;6.20;;;11.80;99.90;;;;;;4994748;28;20516;-70
2022/10/10 06:41:04;;;;;;;11.93;10.63;;;11.90;99.90;;;;;;4994775;28;20403;-69
2022/10/10 06:43:30;;;;;;;7.50;6.80;;;11.90;99.90;;;;;;5011713;28;20778;-69
2022/10/10 06:45:58;;;;;;;6.87;6.27;;;11.90;99.90;;;;;;5014457;28;20420;-69
2022/10/10 06:48:24;;;;;;;9.20;7.23;;;12.00;99.90;;;;;;5013897;28;20755;-69
2022/10/10 06:50:58;;;;;;;7.60;6.90;;;12.00;99.90;;;;;;5014485;28;20425;-69
2022/10/10 06:53:24;;;;;;;7.60;6.87;;;12.10;99.90;;;;;;5013477;28;20429;-68
2022/10/10 06:55:51;;;;;;;7.63;6.83;;;12.10;99.90;;;;;;5012666;28;20422;-68
2022/10/10 06:58:37;;;;;;;7.70;6.40;;;12.10;99.90;;;;;;5006537;28;20442;-71
2022/10/10 07:01:05;;;;;;;10.67;6.57;;;12.20;99.90;;;;;;5014056;28;20402;-69
2022/10/10 07:03:31;;;;;;;13.10;8.60;;;12.30;99.90;;;;;;4992660;28;20426;-69
2022/10/10 07:06:00;;;;;;;8.87;7.47;;;12.40;99.90;;;;;;5013071;28;20297;-69
2022/10/10 07:08:26;;;;;;;7.77;7.00;;;12.40;99.90;;;;;;5013202;28;20612;-69
2022/10/10 07:10:52;;;;;;;11.10;9.13;;;12.50;99.90;;;;;;5012682;28;20422;-69
2022/10/10 07:13:18;;;;;;;13.00;8.43;;;12.60;99.90;;;;;;5000909;28;20419;-69
2022/10/10 07:15:44;;;;;;;19.83;9.77;;;12.60;99.90;;;;;;4994135;28;20185;-70
2022/10/10 07:18:10;;;;;;;15.50;9.10;;;12.70;99.90;;;;;;5010358;28;20517;-69
2022/10/10 07:20:36;;;;;;;8.73;7.83;;;12.70;99.90;;;;;;5013226;28;20404;-69
2022/10/10 07:23:03;;;;;;;11.73;7.73;;;12.80;99.90;;;;;;5013075;28;20552;-73
2022/10/10 07:25:29;;;;;;;8.47;7.67;;;12.90;99.90;;;;;;5011165;28;20431;-72
2022/10/10 07:27:55;;;;;;;8.90;7.57;;;13.00;99.90;;;;;;5013008;28;20429;-71
2022/10/10 07:30:22;;;;;;;9.57;7.97;;;13.10;99.90;;;;;;5010923;28;20427;-72
2022/10/10 07:32:48;;;;;;;10.70;7.60;;;13.20;99.90;;;;;;5011819;28;20428;-71
2022/10/10 07:35:14;;;;;;;8.77;7.87;;;13.30;99.90;;;;;;5013632;28;20412;-71
2022/10/10 07:37:39;;;;;;;8.03;7.33;;;13.40;99.90;;;;;;5012883;28;20412;-71
2022/10/10 07:40:07;;;;;;;8.40;7.60;;;13.60;99.90;;;;;;5013510;28;20172;-71
2022/10/10 07:42:33;;;;;;;6.77;6.17;;;13.60;99.90;;;;;;5012782;28;20213;-71
2022/10/10 07:44:59;;;;;;;6.07;5.53;;;13.60;99.90;;;;;;5013333;28;20399;-71
2022/10/10 07:47:25;;;;;;;7.77;7.00;;;13.70;99.90;;;;;;5012826;28;20904;-71
2022/10/10 07:49:51;;;;;;;6.03;5.60;;;13.80;99.90;;;;;;5013337;28;20174;-71
2022/10/10 07:52:16;;;;;;;5.93;5.33;;;14.00;99.90;;;;;;4995519;28;20201;-70
2022/10/10 07:54:42;;;;;;;5.70;5.20;;;14.10;99.90;;;;;;5012946;28;20183;-71
2022/10/10 07:57:08;;;;;;;5.27;4.87;;;14.20;99.90;;;;;;5013492;28;20181;-71
2022/10/10 07:59:33;;;;;;;7.70;5.17;;;14.40;99.90;;;;;;5011589;28;20257;-71
2022/10/10 08:01:59;;;;;;;6.27;5.77;;;14.60;99.90;;;;;;5013178;28;20190;-72
2022/10/10 08:04:25;;;;;;;5.97;5.47;;;14.70;99.90;;;;;;5012576;28;20183;-71
2022/10/10 08:06:51;;;;;;;5.73;5.30;;;14.60;99.90;;;;;;5023504;28;20549;-70
2022/10/10 08:09:16;;;;;;;6.23;5.80;;;14.80;99.90;;;;;;5032984;28;20175;-71
2022/10/10 08:11:42;;;;;;;7.30;4.93;;;14.90;99.90;;;;;;5031907;28;20915;-71
2022/10/10 08:14:08;;;;;;;5.90;5.50;;;14.90;99.90;;;;;;5032784;28;20200;-71
2022/10/10 08:16:34;;;;;;;4.63;4.33;;;15.00;99.90;;;;;;5030008;28;20261;-71
2022/10/10 08:19:00;;;;;;;5.03;4.63;;;15.00;99.90;;;;;;5032773;28;20445;-70
2022/10/10 08:21:25;;;;;;;4.80;4.50;;;15.10;99.90;;;;;;5031692;28;20253;-71
2022/10/10 08:23:51;;;;;;;5.30;4.93;;;15.10;99.90;;;;;;5032732;28;20191;-72
2022/10/10 08:26:18;;;;;;;5.13;4.63;;;15.20;99.90;;;;;;5032693;28;20176;-71
2022/10/10 08:28:46;;;;;;;5.57;5.03;;;15.20;99.90;;;;;;5032035;28;20180;-71
2022/10/10 08:31:17;;;;;;;5.20;4.73;;;15.30;99.90;;;;;;5030195;28;20426;-70
2022/10/10 08:33:45;;;;;;;5.10;4.70;;;15.50;99.90;;;;;;5031988;28;20420;-71
2022/10/10 08:36:14;;;;;;;5.27;4.80;;;15.60;99.90;;;;;;5032638;28;20789;-71
2022/10/10 08:38:40;;;;;;;6.03;4.93;;;15.60;99.90;;;;;;5031639;28;20427;-71
2022/10/10 08:41:55;;;;;;;6.07;4.40;;;15.70;99.90;;;;;;5032354;28;20411;-71
2022/10/10 08:44:50;;;;;;;5.30;4.70;;;15.90;99.90;;;;;;4971654;28;20414;-71
2022/10/10 08:47:32;;;;;;;6.07;5.53;;;16.00;99.90;;;;;;4971493;28;20412;-71
2022/10/10 08:50:04;;;;;;;5.07;4.70;;;16.10;99.90;;;;;;4955243;28;20970;-71
2022/10/10 08:52:39;;;;;;;7.83;5.23;;;16.20;99.90;;;;;;4970853;28;20491;-71
2022/10/10 08:55:20;;;;;;;5.17;4.77;;;16.20;99.90;;;;;;4971293;28;20993;-71
2022/10/10 08:57:46;;;;;;;6.30;5.17;;;16.10;99.90;;;;;;4970764;28;20437;-71
2022/10/10 09:00:17;;;;;;;6.33;5.83;;;16.30;99.90;;;;;;4968107;28;20435;-71
2022/10/10 09:02:50;;;;;;;4.90;4.50;;;16.40;99.90;;;;;;4966267;28;20232;-70
2022/10/10 09:05:22;;;;;;;5.40;4.93;;;16.50;99.90;;;;;;4952445;28;20435;-71
2022/10/10 09:08:12;;;;;;;5.60;4.97;;;16.60;99.90;;;;;;4970447;28;20513;-71
2022/10/10 09:10:49;;;;;;;7.13;5.33;;;16.80;99.90;;;;;;4970580;28;20447;-71
2022/10/10 09:13:24;;;;;;;5.33;4.90;;;16.90;99.90;;;;;;4955131;28;20982;-71
2022/10/10 09:15:56;;;;;;;6.70;5.40;;;17.20;99.90;;;;;;5024313;28;20876;-71
2022/10/10 09:18:45;;;;;;;7.80;5.80;;;17.40;99.90;;;;;;5031803;28;20414;-71
2022/10/10 09:21:19;;;;;;;7.17;5.10;;;17.60;99.90;;;;;;5022410;28;20801;-71
2022/10/10 09:23:58;;;;;;;5.53;5.07;;;17.70;99.10;;;;;;5031613;28;20401;-71
2022/10/10 09:26:32;;;;;;;6.47;5.80;;;18.00;99.40;;;;;;5014571;28;20401;-71
2022/10/10 09:29:20;;;;;;;5.67;5.23;;;18.40;98.80;;;;;;5032327;28;20392;-70
2022/10/10 09:31:51;;;;;;;5.10;4.60;;;18.70;97.00;;;;;;5006359;28;20433;-75
2022/10/10 09:34:23;;;;;;;6.97;5.27;;;19.00;96.70;;;;;;5025758;28;20483;-71
2022/10/10 09:36:49;;;;;;;4.90;4.50;;;19.30;96.90;;;;;;5034948;28;20492;-71
2022/10/10 09:39:37;;;;;;;6.63;5.90;;;19.40;95.00;;;;;;5035450;28;20761;-71
2022/10/10 09:42:14;;;;;;;4.90;4.30;;;19.70;94.60;;;;;;5035342;28;20472;-71
2022/10/10 09:44:42;;;;;;;4.60;4.20;;;19.90;94.70;;;;;;5034824;28;20389;-71
2022/10/10 09:47:12;;;;;;;5.80;4.77;;;20.20;94.60;;;;;;5035178;28;20444;-71
2022/10/10 09:49:38;;;;;;;6.60;4.13;;;20.50;94.80;;;;;;5017023;28;20788;-71
2022/10/10 09:52:19;;;;;;;4.97;4.60;;;20.80;93.00;;;;;;5033593;28;20409;-71
2022/10/10 09:54:48;;;;;;;6.03;5.43;;;21.00;92.00;;;;;;4995314;28;20585;-71
2022/10/10 09:57:19;;;;;;;5.43;4.90;;;21.10;91.50;;;;;;4995796;28;20443;-71
2022/10/10 09:59:45;;;;;;;8.13;4.73;;;21.00;90.50;;;;;;4995009;28;20407;-71
2022/10/10 10:02:18;;;;;;;5.83;4.47;;;21.20;90.60;;;;;;4995639;28;20812;-71
2022/10/10 10:04:45;;;;;;;6.20;5.80;;;21.30;90.10;;;;;;4995083;28;20176;-71
2022/10/10 10:07:27;;;;;;;5.70;5.30;;;21.50;88.50;;;;;;5008736;28;20480;-71
2022/10/10 10:09:56;;;;;;;5.03;4.73;;;21.80;87.10;;;;;;5014893;28;20418;-71
2022/10/10 10:12:26;;;;;;;5.23;4.77;;;22.10;85.20;;;;;;5015117;28;20452;-71
2022/10/10 10:14:59;;;;;;;7.10;6.60;;;22.40;83.70;;;;;;5014616;28;20417;-71
2022/10/10 10:17:25;;;;;;;8.00;7.60;;;22.70;83.70;;;;;;5014999;28;20395;-71
2022/10/10 10:19:51;;;;;;;6.57;3.93;;;22.90;80.80;;;;;;5014283;28;20739;-71
2022/10/10 10:22:34;;;;;;;4.90;4.50;;;23.10;79.40;;;;;;5016084;28;20489;-70
2022/10/10 10:25:29;;;;;;;4.37;4.07;;;23.30;76.70;;;;;;5033616;28;20994;-69
2022/10/10 10:28:15;;;;;;;4.47;4.23;;;23.20;79.30;;;;;;5034490;28;20405;-69
2022/10/10 10:30:42;;;;;;;6.17;3.60;;;23.50;79.70;;;;;;5034022;28;20417;-70
2022/10/10 10:33:33;;;;;;;5.93;5.40;;;23.70;78.10;;;;;;5016809;28;20504;-69
2022/10/10 10:36:17;;;;;;;6.43;6.10;;;23.90;76.10;;;;;;5034461;28;20398;-70
2022/10/10 10:38:54;;;;;;;5.00;4.60;;;23.90;74.00;;;;;;5033896;28;20401;-69
2022/10/10 10:41:32;;;;;;;5.57;5.03;;;23.90;73.10;;;;;;5034277;28;20440;-70
2022/10/10 10:44:28;;;;;;;4.10;3.50;;;23.80;73.80;;;;;;5034138;28;20759;-70
2022/10/10 10:47:12;;;;;;;4.40;3.40;;;23.80;73.30;;;;;;5033764;28;20765;-70
2022/10/10 10:49:54;;;;;;;3.83;3.50;;;23.80;74.30;;;;;;5032762;28;20468;-70
2022/10/10 10:52:37;;;;;;;6.60;6.10;;;23.90;74.40;;;;;;5034214;28;20394;-70
2022/10/10 10:55:31;;;;;;;5.13;4.73;;;23.90;71.40;;;;;;5034197;28;20401;-71
2022/10/10 10:58:23;;;;;;;6.27;4.37;;;23.90;73.70;;;;;;5033972;28;20448;-70
2022/10/10 11:01:00;;;;;;;6.47;6.10;;;23.90;71.10;;;;;;5032560;28;20496;-71
2022/10/10 11:03:35;;;;;;;5.63;5.33;;;24.00;71.50;;;;;;5033876;28;20424;-70
2022/10/10 11:06:09;;;;;;;4.80;3.77;;;23.90;71.20;;;;;;5033491;28;20535;-71
2022/10/10 11:08:45;;;;;;;6.00;5.60;;;23.90;70.90;;;;;;5033184;28;20421;-71
2022/10/10 11:11:29;;;;;;;3.77;3.43;;;23.80;71.80;;;;;;5033768;28;20431;-71
2022/10/10 11:13:57;;;;;;;4.30;3.50;;;23.90;72.00;;;;;;5033183;28;20405;-71
2022/10/10 11:16:33;;;;;;;7.33;6.80;;;23.90;72.50;;;;;;5033699;28;20893;-70
2022/10/10 11:19:14;;;;;;;7.63;7.07;;;24.00;73.50;;;;;;5033612;28;20423;-70
2022/10/10 11:22:00;;;;;;;5.20;4.33;;;24.00;73.20;;;;;;4965450;28;20456;-71
2022/10/10 11:24:40;;;;;;;6.00;5.50;;;24.10;72.70;;;;;;5033647;28;20539;-70
2022/10/10 11:27:32;;;;;;;4.20;3.90;;;24.20;74.00;;;;;;5033484;28;20393;-71
2022/10/10 11:30:20;;;;;;;4.87;4.00;;;24.30;70.90;;;;;;5033158;28;20467;-70
2022/10/10 11:33:12;;;;;;;6.70;3.47;;;24.30;70.00;;;;;;5030349;28;20793;-71
2022/10/10 11:35:56;;;;;;;5.27;3.53;;;24.30;70.80;;;;;;5030375;28;20406;-71
2022/10/10 11:38:24;;;;;;;4.30;3.90;;;24.10;71.40;;;;;;5032059;28;20440;-71
2022/10/10 11:41:12;;;;;;;5.40;4.00;;;24.00;70.70;;;;;;5032638;28;20756;-70
2022/10/10 11:43:59;;;;;;;4.37;3.67;;;23.80;71.80;;;;;;5032370;28;20394;-71
2022/10/10 11:46:37;;;;;;;6.73;4.43;;;23.80;73.50;;;;;;5033411;28;20483;-71
2022/10/10 11:49:16;;;;;;;4.00;3.53;;;23.80;72.60;;;;;;5033054;28;20424;-70
2022/10/10 11:51:54;;;;;;;7.57;3.53;;;23.80;71.80;;;;;;5032711;28;20484;-71
2022/10/10 11:54:40;;;;;;;6.63;4.17;;;23.50;70.90;;;;;;5033263;28;20420;-70
2022/10/10 11:57:31;;;;;;;6.33;3.90;;;23.20;71.90;;;;;;5032494;28;20398;-71
2022/10/10 12:00:05;;;;;;;3.53;3.23;;;23.10;73.40;;;;;;5032343;28;20904;-71
2022/10/10 12:02:36;;;;;;;4.47;3.40;;;22.90;73.20;;;;;;5033001;28;20445;-71
2022/10/10 12:05:05;;;;;;;4.87;3.83;;;22.80;74.20;;;;;;5032847;28;20394;-70
2022/10/10 12:07:43;;;;;;;4.70;3.70;;;22.70;74.90;;;;;;5013376;28;20898;-71
2022/10/10 12:10:21;;;;;;;4.27;3.77;;;22.60;75.20;;;;;;5033007;28;20799;-71
2022/10/10 12:12:50;;;;;;;7.03;3.77;;;22.40;75.20;;;;;;4998088;28;20404;-71
2022/10/10 12:15:32;;;;;;;8.87;4.27;;;22.30;76.30;;;;;;5032512;28;20405;-71
2022/10/10 12:17:58;;;;;;;3.73;3.43;;;22.20;76.90;;;;;;5032115;28;20405;-71
2022/10/10 12:20:23;;;;;;;5.07;3.80;;;22.00;77.00;;;;;;5032674;28;20492;-71
2022/10/10 12:23:09;;;;;;;5.03;3.87;;;21.90;78.40;;;;;;5032203;28;21004;-71
2022/10/10 12:25:41;;;;;;;4.30;3.60;;;21.80;79.30;;;;;;5032736;28;20166;-71
2022/10/10 12:28:12;;;;;;;3.83;3.53;;;21.70;78.50;;;;;;4981445;28;20794;-71
2022/10/10 12:31:07;;;;;;;5.97;3.73;;;21.70;79.10;;;;;;5029527;28;20424;-71
2022/10/10 12:33:33;;;;;;;5.67;5.20;;;21.60;80.90;;;;;;5019137;28;20422;-70
2022/10/10 12:36:19;;;;;;;6.90;4.47;;;21.50;80.20;;;;;;5014175;28;20479;-71
2022/10/10 12:39:00;;;;;;;5.10;4.40;;;21.40;80.80;;;;;;5031947;28;20217;-71
2022/10/10 12:41:41;;;;;;;7.73;3.90;;;21.40;82.60;;;;;;5029966;28;20870;-71
2022/10/10 12:44:34;;;;;;;6.23;4.70;;;21.30;83.60;;;;;;5032827;28;20402;-70
2022/10/10 12:47:29;;;;;;;8.43;5.50;;;21.20;82.70;;;;;;5031969;28;20417;-70
2022/10/10 12:49:57;;;;;;;5.70;4.53;;;21.00;82.10;;;;;;5025912;28;20425;-70
2022/10/10 12:52:26;;;;;;;5.27;4.50;;;21.00;83.50;;;;;;5032430;28;20512;-70
2022/10/10 12:55:00;;;;;;;5.67;4.43;;;20.90;83.90;;;;;;5031705;28;20444;-70
2022/10/10 12:57:44;;;;;;;8.93;4.10;;;20.80;84.70;;;;;;5032365;28;20447;-70
2022/10/10 13:00:18;;;;;;;4.73;3.90;;;20.80;87.70;;;;;;5014515;28;20906;-70
2022/10/10 13:02:52;;;;;;;8.00;4.53;;;20.70;86.90;;;;;;5029153;28;20507;-70
2022/10/10 13:05:34;;;;;;;6.17;4.23;;;20.80;86.70;;;;;;5032146;28;20409;-70
2022/10/10 13:08:04;;;;;;;9.30;4.10;;;20.80;87.90;;;;;;5033529;28;20405;-70